createdAt,value
2023-01-01T00:03:54.893Z,13.4
2023-01-01T00:09:32.066Z,13.4
2023-01-01T00:15:10.057Z,13.3
2023-01-01T00:20:45.035Z,13.1
2023-01-01T00:26:21.068Z,13
2023-01-01T00:32:22.533Z,13.1
2023-01-01T00:38:31.538Z,13.1
2023-01-01T00:44:06.605Z,13.1
2023-01-01T00:49:47.391Z,13.1
2023-01-01T00:55:48.361Z,13.2
2023-01-01T01:01:23.893Z,13.2
2023-01-01T01:07:09.486Z,13.2
2023-01-01T01:12:44.626Z,13.2
2023-01-01T01:18:22.234Z,13.2
2023-01-01T01:23:58.028Z,13.1
2023-01-01T01:29:35.861Z,13
2023-01-01T01:35:14.669Z,13
2023-01-01T01:42:23.085Z,13
2023-01-01T01:48:20.455Z,13.2
2023-01-01T01:53:53.399Z,13.3
2023-01-01T01:59:32.783Z,13.5
2023-01-01T02:05:11.065Z,13.5
2023-01-01T02:10:55.995Z,13.5
2023-01-01T02:17:39.214Z,13.4
2023-01-01T02:23:36.516Z,13.4
2023-01-01T02:29:15.239Z,13.5
2023-01-01T02:34:53.073Z,13.5
2023-01-01T02:40:28.562Z,13.4
2023-01-01T02:46:30.550Z,13.1
2023-01-01T02:52:03.587Z,13.2
2023-01-01T02:57:38.898Z,13.3
2023-01-01T03:03:16.548Z,13.4
2023-01-01T03:08:52.578Z,13.5
2023-01-01T03:14:48.011Z,13.6
2023-01-01T03:20:22.999Z,13.7
2023-01-01T03:26:01.512Z,13.7
2023-01-01T03:31:43.166Z,13.5
2023-01-01T03:37:26.527Z,13.3
2023-01-01T03:43:05.734Z,13.2
2023-01-01T03:49:04.522Z,13.4
2023-01-01T03:54:37.787Z,13.5
2023-01-01T04:00:34.749Z,13.7
2023-01-01T04:06:11.323Z,13.7
2023-01-01T04:12:13.292Z,13.5
2023-01-01T04:17:48.077Z,13.4
2023-01-01T04:23:23.366Z,13.3
2023-01-01T04:28:58.223Z,13.2
2023-01-01T04:34:33.570Z,13
2023-01-01T04:40:09.271Z,13
2023-01-01T04:45:58.524Z,12.9
2023-01-01T04:51:34.316Z,12.8
2023-01-01T04:57:18.359Z,12.8
2023-01-01T05:02:53.771Z,12.6
2023-01-01T05:08:29.566Z,12.6
2023-01-01T05:14:05.899Z,12.7
2023-01-01T05:19:40.970Z,13
2023-01-01T05:25:25.145Z,12.9
2023-01-01T05:31:00.630Z,12.8
2023-01-01T05:36:57.213Z,12.7
2023-01-01T05:42:36.066Z,12.7
2023-01-01T05:48:37.838Z,12.8
2023-01-01T05:59:46.613Z,13
2023-01-01T06:05:22.348Z,13.1
2023-01-01T06:11:18.758Z,13
2023-01-01T06:17:12.650Z,13
2023-01-01T06:22:47.543Z,13
2023-01-01T06:28:31.480Z,12.9
2023-01-01T06:34:12.691Z,12.8
2023-01-01T06:39:57.276Z,12.8
2023-01-01T06:45:32.665Z,12.8
2023-01-01T06:51:14.052Z,12.7
2023-01-01T06:56:53.312Z,12.7
2023-01-01T07:02:28.588Z,12.8
2023-01-01T07:08:05.905Z,12.8
2023-01-01T07:13:42.946Z,12.8
2023-01-01T07:19:22.107Z,12.9
2023-01-01T07:25:00.829Z,12.9
2023-01-01T07:30:51.582Z,12.9
2023-01-01T07:36:42.635Z,12.8
2023-01-01T07:42:28.250Z,12.8
2023-01-01T07:48:47.106Z,12.8
2023-01-01T07:54:19.964Z,12.7
2023-01-01T08:00:06.754Z,12.8
2023-01-01T08:05:45.149Z,12.8
2023-01-01T08:11:21.232Z,12.8
2023-01-01T08:16:58.649Z,12.6
2023-01-01T08:22:40.383Z,12.3
2023-01-01T08:28:25.515Z,12.2
2023-01-01T08:34:05.218Z,12.1
2023-01-01T08:39:44.057Z,12.1
2023-01-01T08:45:19.530Z,12.1
2023-01-01T08:51:04.680Z,12
2023-01-01T08:56:43.843Z,12
2023-01-01T09:02:24.535Z,12
2023-01-01T09:08:02.431Z,12.8
2023-01-01T09:13:37.722Z,13.3
2023-01-01T09:19:14.238Z,13.5
2023-01-01T09:25:15.705Z,13.3
2023-01-01T09:30:50.783Z,13.6
2023-01-01T09:36:32.339Z,14.1
2023-01-01T09:42:12.388Z,14.5
2023-01-01T09:48:17.086Z,15.1
2023-01-01T09:53:49.971Z,15.2
2023-01-01T09:59:35.110Z,15.4
2023-01-01T10:05:40.464Z,14.9
2023-01-01T10:11:58.062Z,16.6
2023-01-01T10:18:35.777Z,16.9
2023-01-01T10:24:12.117Z,16.9
2023-01-01T10:29:47.177Z,16.9
2023-01-01T10:35:39.815Z,16.9
2023-01-01T10:41:19.755Z,17.1
2023-01-01T10:47:17.938Z,18
2023-01-01T10:52:51.867Z,16.5
2023-01-01T10:58:27.608Z,15.4
2023-01-01T11:04:12.306Z,15.4
2023-01-01T11:10:02.879Z,16.2
2023-01-01T11:16:00.984Z,16.1
2023-01-01T11:21:36.101Z,16.2
2023-01-01T11:27:14.461Z,16.7
2023-01-01T11:33:03.812Z,16.7
2023-01-01T11:38:43.671Z,17.2
2023-01-01T11:44:22.099Z,17
2023-01-01T11:49:57.484Z,17.2
2023-01-01T11:55:41.504Z,17.6
2023-01-01T12:01:17.260Z,18.3
2023-01-01T12:06:53.985Z,17.7
2023-01-01T12:12:30.148Z,18.2
2023-01-01T12:18:05.601Z,18.3
2023-01-01T12:23:41.270Z,17.7
2023-01-01T12:29:24.075Z,18.2
2023-01-01T12:35:03.978Z,18.5
2023-01-01T12:40:49.364Z,18.1
2023-01-01T12:46:49.778Z,18.3
2023-01-01T12:52:23.926Z,18.4
2023-01-01T12:58:02.136Z,19
2023-01-01T13:03:37.766Z,18.5
2023-01-01T13:09:14.179Z,20.2
2023-01-01T13:14:49.963Z,20.7
2023-01-01T13:20:29.762Z,21.1
2023-01-01T13:26:05.738Z,21.9
2023-01-01T13:31:41.640Z,22.2
2023-01-01T13:37:18.275Z,21.6
2023-01-01T13:42:57.781Z,21.3
2023-01-01T13:49:04.738Z,20.6
2023-01-01T13:54:38.667Z,20.4
2023-01-01T14:00:22.497Z,20.4
2023-01-01T14:06:08.208Z,21
2023-01-01T14:11:52.296Z,21.2
2023-01-01T14:17:49.542Z,21.4
2023-01-01T14:23:33.907Z,21.3
2023-01-01T14:29:09.212Z,20.9
2023-01-01T14:34:50.255Z,20.9
2023-01-01T14:40:25.576Z,21
2023-01-01T14:46:06.121Z,21.6
2023-01-01T14:51:47.192Z,22
2023-01-01T14:57:26.363Z,21.9
2023-01-01T15:03:04.837Z,21.8
2023-01-01T15:09:01.933Z,21.5
2023-01-01T15:14:51.643Z,21.3
2023-01-01T15:20:53.631Z,21.7
2023-01-01T15:26:33.249Z,21.7
2023-01-01T15:32:26.846Z,21.9
2023-01-01T15:38:15.660Z,21.9
2023-01-01T15:44:15.454Z,21.8
2023-01-01T15:50:16.545Z,21.6
2023-01-01T15:55:54.699Z,21.4
2023-01-01T16:01:39.017Z,21.2
2023-01-01T16:07:22.007Z,21.2
2023-01-01T16:13:06.593Z,21
2023-01-01T16:18:53.160Z,20.5
2023-01-01T16:24:30.418Z,20.3
2023-01-01T16:30:05.889Z,20
2023-01-01T16:35:58.205Z,19.9
2023-01-01T16:41:34.003Z,19.5
2023-01-01T16:47:38.800Z,19.3
2023-01-01T16:53:12.978Z,18.8
2023-01-01T16:59:00.238Z,18.9
2023-01-01T17:04:38.896Z,18.5
2023-01-01T17:10:23.134Z,18.6
2023-01-01T17:15:59.437Z,18.3
2023-01-01T17:21:36.897Z,18.1
2023-01-01T17:27:11.898Z,18
2023-01-01T17:32:47.213Z,18
2023-01-01T17:38:22.575Z,18
2023-01-01T17:43:57.515Z,17.9
2023-01-01T17:49:33.151Z,17.9
2023-01-01T17:55:08.475Z,17.8
2023-01-01T18:00:43.369Z,17.7
2023-01-01T18:06:21.897Z,17.7
2023-01-01T18:11:59.661Z,17.7
2023-01-01T18:17:34.982Z,17.8
2023-01-01T18:23:11.005Z,17.7
2023-01-01T18:28:46.349Z,17.7
2023-01-01T18:34:21.847Z,17.6
2023-01-01T18:39:57.331Z,17.7
2023-01-01T18:45:33.847Z,17.8
2023-01-01T18:51:09.171Z,17.9
2023-01-01T18:56:44.715Z,17.9
2023-01-01T19:02:20.506Z,17.9
2023-01-01T19:07:58.193Z,18
2023-01-01T19:13:33.971Z,18.1
2023-01-01T19:19:09.442Z,18.1
2023-01-01T19:24:51.327Z,18.1
2023-01-01T19:30:29.429Z,18.1
2023-01-01T19:36:12.048Z,18.1
2023-01-01T19:41:47.172Z,18.2
2023-01-01T19:47:23.549Z,18.2
2023-01-01T19:52:58.945Z,18.2
2023-01-01T19:58:35.306Z,18.2
2023-01-01T20:04:11.518Z,18.3
2023-01-01T20:09:48.814Z,18.3
2023-01-01T20:15:24.467Z,18.2
2023-01-01T20:21:00.704Z,18.2
2023-01-01T20:26:35.829Z,18.2
2023-01-01T20:32:12.574Z,18.2
2023-01-01T20:37:49.309Z,18.1
2023-01-01T20:43:29.674Z,18
2023-01-01T20:49:26.627Z,17.9
2023-01-01T20:55:00.257Z,17.8
2023-01-01T21:00:36.624Z,17.8
2023-01-01T21:06:12.739Z,17.8
2023-01-01T21:12:00.908Z,17.8
2023-01-01T21:17:38.374Z,17.8
2023-01-01T21:23:13.932Z,17.8
2023-01-01T21:28:49.347Z,17.8
2023-01-01T21:34:24.826Z,17.7
2023-01-01T21:40:00.157Z,17.7
2023-01-01T21:45:36.223Z,17.7
2023-01-01T21:51:13.446Z,17.8
2023-01-01T21:56:49.148Z,17.8
2023-01-01T22:02:27.012Z,17.8
2023-01-01T22:08:05.663Z,17.8
2023-01-01T22:13:41.239Z,17.8
2023-01-01T22:19:16.571Z,17.9
2023-01-01T22:24:53.346Z,17.9
2023-01-01T22:30:28.761Z,17.8
2023-01-01T22:36:05.135Z,17.8
2023-01-01T22:41:40.396Z,17.8
2023-01-01T22:47:37.315Z,17.8
2023-01-01T22:53:11.092Z,17.7
2023-01-01T22:58:48.279Z,17.6
2023-01-01T23:04:32.944Z,17.6
2023-01-01T23:10:10.067Z,17.6
2023-01-01T23:15:49.692Z,17.6
2023-01-01T23:21:32.806Z,17.6
2023-01-01T23:27:08.982Z,17.5
2023-01-01T23:32:44.451Z,17.3
2023-01-01T23:38:19.390Z,17.4
2023-01-01T23:43:54.622Z,17.3
2023-01-01T23:49:52.133Z,17.2
2023-01-01T23:55:24.993Z,17.1
